Time;durP1;ratioP1;P1;durP2;ratioP2;P2;SDS_P1;SDS_P2;PMS_P1;PMS_P2;Temp;Humidity;BMP_temperature;BMP_pressure;BME280_temperature;BME280_humidity;BME280_pressure;Samples;Min_cycle;Max_cycle;Signal;HPM_P1;HPM_P2
2021/12/12 00:02:26;;;;;;;60.65;30.33;;;5.60;86.70;;;;;;6035288;23;94017;-73
2021/12/12 00:04:54;;;;;;;60.05;28.27;;;5.60;87.10;;;;;;6035472;23;92476;-70
2021/12/12 00:07:30;;;;;;;59.42;28.80;;;5.60;86.80;;;;;;6011118;23;92405;-69
2021/12/12 00:10:04;;;;;;;60.85;30.38;;;5.60;87.20;;;;;;6035526;23;94784;-74
2021/12/12 00:12:35;;;;;;;55.72;29.17;;;5.60;87.20;;;;;;6037014;23;95244;-73
2021/12/12 00:15:07;;;;;;;68.50;32.80;;;5.70;87.00;;;;;;6037214;23;92336;-74
2021/12/12 00:17:34;;;;;;;59.42;30.75;;;5.60;87.30;;;;;;6036940;23;92371;-73
2021/12/12 00:20:01;;;;;;;63.08;31.83;;;5.70;86.60;;;;;;6036337;23;103992;-73
2021/12/12 00:22:29;;;;;;;48.42;26.88;;;5.70;86.70;;;;;;6037094;23;92729;-73
2021/12/12 00:24:56;;;;;;;59.17;30.58;;;5.70;86.70;;;;;;6036800;23;92417;-73
2021/12/12 00:27:23;;;;;;;58.33;29.65;;;5.70;86.80;;;;;;6037306;23;91849;-73
2021/12/12 00:29:51;;;;;;;50.75;29.48;;;5.70;86.60;;;;;;6034946;23;95438;-73
2021/12/12 00:32:21;;;;;;;54.70;31.02;;;5.70;86.90;;;;;;6036878;23;94307;-73
2021/12/12 00:35:00;;;;;;;57.30;30.75;;;5.70;86.90;;;;;;6035991;23;95492;-73
2021/12/12 00:37:28;;;;;;;54.95;31.38;;;5.80;86.60;;;;;;6011435;23;92358;-73
2021/12/12 00:40:00;;;;;;;55.83;29.50;;;5.80;86.50;;;;;;6036796;23;93084;-73
2021/12/12 00:42:33;;;;;;;61.47;31.15;;;5.80;86.30;;;;;;6011389;23;95092;-73
2021/12/12 00:45:07;;;;;;;51.63;30.73;;;5.80;86.40;;;;;;6036944;23;92718;-73
2021/12/12 00:47:33;;;;;;;;;;;5.90;86.30;;;;;;6037672;23;92389;-73
2021/12/12 00:50:14;;;;;;;54.72;29.52;;;5.80;86.40;;;;;;6037583;23;93082;-74
2021/12/12 00:52:44;;;;;;;45.38;26.40;;;5.80;86.80;;;;;;6011702;23;92789;-73
2021/12/12 00:55:11;;;;;;;54.75;29.33;;;5.80;86.20;;;;;;6035344;23;92389;-74
2021/12/12 00:57:38;;;;;;;59.83;31.75;;;5.80;86.40;;;;;;6010583;23;92508;-73
2021/12/12 01:00:09;;;;;;;55.60;29.83;;;5.80;86.30;;;;;;6035392;23;95324;-73
2021/12/12 01:02:36;;;;;;;65.28;31.70;;;5.80;86.30;;;;;;5987850;23;95203;-73
2021/12/12 01:05:05;;;;;;;59.50;30.92;;;5.90;86.30;;;;;;5987060;23;105560;-73
2021/12/12 01:07:36;;;;;;;47.90;29.33;;;5.90;86.00;;;;;;6010993;23;92451;-69
2021/12/12 01:10:14;;;;;;;52.72;28.40;;;5.90;86.00;;;;;;6036479;23;97915;-69
2021/12/12 01:12:42;;;;;;;55.95;29.63;;;5.90;86.00;;;;;;6010515;23;93991;-69
2021/12/12 01:15:17;;;;;;;52.22;27.42;;;5.90;86.10;;;;;;6011412;23;92908;-69
2021/12/12 01:17:49;;;;;;;52.38;28.85;;;5.90;85.80;;;;;;6037249;23;91730;-69
2021/12/12 01:20:16;;;;;;;59.03;28.98;;;5.90;86.00;;;;;;6035289;23;93109;-69
2021/12/12 01:22:44;;;;;;;48.65;27.52;;;6.00;85.60;;;;;;6036391;23;92861;-73
2021/12/12 01:25:27;;;;;;;54.78;30.10;;;6.00;85.90;;;;;;6035425;23;94699;-73
2021/12/12 01:27:55;;;;;;;55.45;27.55;;;6.00;85.70;;;;;;6036769;23;92445;-73
2021/12/12 01:30:26;;;;;;;49.33;26.60;;;6.00;85.40;;;;;;6036487;23;93043;-73
2021/12/12 01:32:55;;;;;;;50.42;25.85;;;6.00;85.50;;;;;;6036382;23;92883;-73
2021/12/12 01:35:23;;;;;;;48.38;25.92;;;6.00;85.50;;;;;;6036978;23;92322;-73
2021/12/12 01:40:51;;;;;;;52.05;26.45;;;6.00;85.80;;;;;;6005702;23;96096;-73
2021/12/12 01:43:30;;;;;;;49.97;28.08;;;6.00;86.00;;;;;;6037110;23;92807;-73
2021/12/12 01:46:01;;;;;;;46.35;25.65;;;6.10;85.90;;;;;;6036564;23;92415;-73
2021/12/12 01:48:39;;;;;;;46.92;25.42;;;6.00;85.80;;;;;;6011328;23;92368;-73
2021/12/12 01:51:09;;;;;;;43.45;25.13;;;6.00;85.40;;;;;;6009107;23;96642;-73
2021/12/12 01:53:42;;;;;;;42.88;25.15;;;6.00;85.80;;;;;;6011444;23;95247;-73
2021/12/12 01:56:18;;;;;;;46.05;26.83;;;6.10;85.70;;;;;;6036661;23;92409;-73
2021/12/12 01:58:50;;;;;;;51.55;25.88;;;6.00;85.80;;;;;;6035990;23;92399;-73
2021/12/12 02:01:25;;;;;;;42.38;25.38;;;6.00;85.50;;;;;;6036467;23;94538;-73
2021/12/12 02:03:59;;;;;;;50.92;25.13;;;6.00;85.70;;;;;;6036199;23;92424;-73
2021/12/12 02:06:27;;;;;;;46.50;27.08;;;6.10;85.80;;;;;;6036687;23;92419;-73
2021/12/12 02:08:56;;;;;;;46.85;26.83;;;6.10;85.90;;;;;;6036778;23;91647;-73
2021/12/12 02:11:28;;;;;;;40.28;23.13;;;6.10;85.60;;;;;;6036484;23;92313;-73
2021/12/12 02:13:59;;;;;;;40.97;23.55;;;6.10;85.50;;;;;;6036178;23;92902;-69
2021/12/12 02:16:27;;;;;;;44.40;24.38;;;6.20;85.50;;;;;;6035547;23;94811;-69
2021/12/12 02:18:58;;;;;;;47.13;24.38;;;6.20;85.50;;;;;;6036304;23;92483;-69
2021/12/12 02:21:35;;;;;;;47.10;24.80;;;6.20;85.80;;;;;;6010796;23;96204;-69
2021/12/12 02:35:05;;;;;;;43.78;24.33;;;6.20;85.80;;;;;;6035544;23;92860;-69
2021/12/12 02:35:37;;;;;;;42.63;23.23;;;6.10;86.30;;;;;;6036722;23;92807;-69
2021/12/12 02:38:05;;;;;;;45.67;24.58;;;6.10;87.50;;;;;;6036287;23;92372;-69
2021/12/12 02:40:51;;;;;;;42.38;23.70;;;6.10;86.90;;;;;;6036681;23;92407;-69
2021/12/12 02:43:24;;;;;;;36.97;21.83;;;6.10;86.90;;;;;;6034876;23;95466;-69
2021/12/12 02:45:55;;;;;;;37.35;22.42;;;6.10;86.70;;;;;;6036007;23;95498;-69
2021/12/12 02:48:32;;;;;;;35.42;21.88;;;6.20;86.80;;;;;;6036712;23;92334;-69
2021/12/12 02:51:04;;;;;;;43.13;23.10;;;6.20;87.00;;;;;;6036333;23;92761;-69
2021/12/12 02:53:36;;;;;;;34.47;20.92;;;6.20;87.50;;;;;;6036330;23;93012;-69
2021/12/12 02:56:11;;;;;;;43.22;23.23;;;6.20;87.50;;;;;;6034347;23;93936;-69
2021/12/12 02:58:40;;;;;;;38.08;22.10;;;6.20;87.00;;;;;;6036075;23;92424;-69
2021/12/12 03:01:31;;;;;;;41.83;21.70;;;6.20;86.80;;;;;;6036210;23;100906;-73
2021/12/12 03:03:58;;;;;;;34.67;20.05;;;6.30;86.40;;;;;;6036026;23;93231;-73
2021/12/12 03:06:32;;;;;;;43.17;21.85;;;6.30;86.40;;;;;;6034119;23;98154;-73
2021/12/12 03:09:03;;;;;;;;;;;6.30;86.70;;;;;;6035238;23;94793;-73
2021/12/12 03:11:30;;;;;;;35.67;20.23;;;6.20;86.60;;;;;;6038848;23;92767;-73
2021/12/12 03:13:58;;;;;;;37.40;20.20;;;6.20;87.10;;;;;;6035459;23;105909;-73
2021/12/12 03:16:25;;;;;;;35.13;21.40;;;6.30;86.80;;;;;;6034571;23;94977;-73
2021/12/12 03:18:53;;;;;;;35.25;19.23;;;6.30;86.90;;;;;;6036349;23;92312;-73
2021/12/12 03:21:31;;;;;;;36.58;20.73;;;6.30;86.30;;;;;;6036121;23;92372;-73
2021/12/12 03:24:09;;;;;;;33.15;19.67;;;6.30;86.10;;;;;;6035850;23;92917;-73
2021/12/12 03:26:37;;;;;;;32.67;18.38;;;6.30;86.10;;;;;;6036633;23;92811;-73
2021/12/12 03:29:06;;;;;;;31.45;17.15;;;6.30;86.20;;;;;;6010631;23;92381;-73
2021/12/12 03:31:43;;;;;;;31.48;18.55;;;6.30;86.40;;;;;;6036298;23;92396;-74
2021/12/12 03:34:17;;;;;;;28.58;17.60;;;6.30;86.80;;;;;;6034263;23;96606;-73
2021/12/12 03:36:45;;;;;;;35.13;19.45;;;6.30;86.70;;;;;;6035972;23;95117;-73
2021/12/12 03:39:19;;;;;;;34.17;17.75;;;6.30;86.50;;;;;;6034335;23;92449;-73
2021/12/12 03:41:47;;;;;;;29.10;17.35;;;6.40;86.80;;;;;;6036341;23;92311;-73
2021/12/12 03:44:25;;;;;;;35.58;19.70;;;6.30;87.30;;;;;;6034994;23;107791;-69
2021/12/12 03:46:58;;;;;;;31.38;17.02;;;6.40;87.20;;;;;;6035990;23;92903;-69
2021/12/12 03:49:26;;;;;;;30.58;17.50;;;6.40;86.80;;;;;;6036117;23;92308;-69
2021/12/12 03:51:53;;;;;;;31.30;17.15;;;6.40;86.90;;;;;;6036522;23;91674;-69
2021/12/12 03:54:20;;;;;;;40.25;19.50;;;6.40;87.10;;;;;;6010287;23;93030;-69
2021/12/12 03:56:47;;;;;;;31.27;17.65;;;6.40;87.50;;;;;;6035578;23;92770;-69
2021/12/12 03:59:14;;;;;;;27.27;15.32;;;6.40;87.60;;;;;;6034071;23;95812;-69
2021/12/12 04:01:46;;;;;;;31.90;18.33;;;6.40;87.80;;;;;;6036024;23;92440;-69
2021/12/12 04:04:24;;;;;;;29.60;15.30;;;6.40;87.50;;;;;;6035274;23;93010;-69
2021/12/12 04:06:52;;;;;;;33.10;17.83;;;6.40;87.60;;;;;;6035661;23;93115;-69
2021/12/12 04:09:20;;;;;;;29.92;15.13;;;6.40;87.80;;;;;;6035555;23;92473;-69
2021/12/12 04:11:51;;;;;;;23.25;15.55;;;6.40;87.80;;;;;;6036153;23;92379;-69
2021/12/12 04:14:19;;;;;;;28.27;17.40;;;6.40;88.30;;;;;;6035327;23;97451;-69
2021/12/12 04:16:50;;;;;;;30.30;15.35;;;6.40;88.30;;;;;;6036171;23;92923;-69
2021/12/12 04:19:17;;;;;;;30.30;17.42;;;6.40;88.00;;;;;;6035547;23;93444;-69
2021/12/12 04:21:45;;;;;;;32.67;16.98;;;6.50;88.40;;;;;;6035731;23;92475;-69
2021/12/12 04:24:23;;;;;;;29.35;16.40;;;6.50;88.30;;;;;;6033277;23;105390;-69
2021/12/12 04:26:51;;;;;;;29.63;15.85;;;6.50;88.30;;;;;;6035481;23;95198;-69
2021/12/12 04:29:27;;;;;;;18.17;11.13;;;6.50;88.40;;;;;;6009576;23;92627;-68
2021/12/12 04:32:01;;;;;;;29.05;14.60;;;6.40;88.00;;;;;;6035819;23;92421;-69
2021/12/12 04:34:33;;;;;;;25.35;15.07;;;6.50;88.40;;;;;;6033638;23;95395;-69
2021/12/12 04:37:01;;;;;;;25.45;14.50;;;6.50;88.60;;;;;;6035606;23;92823;-69
2021/12/12 04:39:32;;;;;;;26.50;14.25;;;6.50;88.60;;;;;;6035452;23;92778;-70
2021/12/12 04:42:05;;;;;;;32.08;15.93;;;6.50;88.50;;;;;;6010518;23;91638;-69
2021/12/12 04:44:36;;;;;;;23.23;14.43;;;6.50;88.50;;;;;;6035519;23;92323;-69
2021/12/12 04:50:34;;;;;;;14.38;9.55;;;6.60;88.50;;;;;;6035669;23;94769;-69
2021/12/12 04:53:36;;;;;;;22.98;14.68;;;6.50;88.70;;;;;;6012017;23;92485;-69
2021/12/12 04:56:22;;;;;;;23.00;14.32;;;6.50;88.60;;;;;;6036503;23;98651;-69
2021/12/12 04:59:11;;;;;;;24.98;13.85;;;6.50;88.80;;;;;;6036624;23;92810;-69
2021/12/12 05:01:55;;;;;;;21.42;13.80;;;6.60;89.10;;;;;;6037028;23;92420;-69
2021/12/12 05:04:29;;;;;;;23.85;13.43;;;6.60;89.00;;;;;;6036719;23;92367;-69
2021/12/12 05:07:04;;;;;;;18.33;11.73;;;6.50;88.80;;;;;;6036924;23;93048;-69
2021/12/12 05:09:43;;;;;;;21.80;12.98;;;6.50;88.90;;;;;;6037353;23;92710;-69
2021/12/12 05:12:31;;;;;;;24.42;13.48;;;6.60;89.40;;;;;;6036485;23;94017;-69
2021/12/12 05:15:07;;;;;;;23.67;13.50;;;6.60;89.20;;;;;;6036951;23;92348;-70
2021/12/12 05:17:42;;;;;;;17.95;12.85;;;6.60;89.20;;;;;;6035002;23;96360;-69
2021/12/12 05:20:14;;;;;;;19.48;12.60;;;6.60;89.20;;;;;;6036912;23;95225;-69
2021/12/12 05:22:48;;;;;;;21.85;12.93;;;6.60;89.20;;;;;;6036825;23;92376;-69
2021/12/12 05:25:20;;;;;;;19.63;11.80;;;6.70;88.90;;;;;;6036604;23;92528;-73
2021/12/12 05:27:51;;;;;;;17.45;11.15;;;6.70;88.70;;;;;;6036522;23;98089;-73
2021/12/12 05:30:28;;;;;;;17.13;12.00;;;6.70;88.60;;;;;;6036505;23;92728;-73
2021/12/12 05:32:55;;;;;;;17.00;11.00;;;6.80;88.50;;;;;;6011593;23;92412;-73
2021/12/12 05:35:26;;;;;;;13.23;9.63;;;6.80;88.20;;;;;;6011450;23;91702;-73
2021/12/12 05:37:54;;;;;;;15.88;10.50;;;6.80;88.30;;;;;;6037363;23;93218;-73
2021/12/12 05:40:32;;;;;;;16.95;11.68;;;6.80;88.30;;;;;;6036298;23;94530;-73
2021/12/12 05:43:01;;;;;;;13.60;9.77;;;6.80;88.40;;;;;;6010291;23;94840;-73
2021/12/12 05:45:30;;;;;;;14.80;10.00;;;6.80;88.70;;;;;;6037126;23;92444;-73
2021/12/12 05:47:57;;;;;;;16.00;10.68;;;6.80;89.60;;;;;;6035867;23;110099;-73
2021/12/12 05:50:26;;;;;;;13.57;10.30;;;6.80;89.10;;;;;;6036581;23;92801;-73
2021/12/12 05:52:54;;;;;;;15.32;10.65;;;6.80;88.70;;;;;;6010617;23;93484;-73
2021/12/12 05:55:30;;;;;;;13.43;10.05;;;6.80;88.60;;;;;;6036543;23;92501;-73
2021/12/12 05:58:00;;;;;;;12.43;9.93;;;6.90;88.80;;;;;;6036169;23;97473;-73
2021/12/12 06:00:32;;;;;;;14.07;10.27;;;6.90;88.60;;;;;;6036426;23;93759;-73
2021/12/12 06:02:59;;;;;;;15.27;9.90;;;6.90;88.80;;;;;;6010828;23;96602;-73
2021/12/12 06:05:27;;;;;;;15.63;11.20;;;6.90;88.50;;;;;;6036796;23;92405;-73
2021/12/12 06:07:56;;;;;;;15.40;10.02;;;6.90;88.70;;;;;;6034986;23;95483;-73
2021/12/12 06:10:24;;;;;;;12.57;9.48;;;6.90;88.60;;;;;;6036097;23;95267;-74
2021/12/12 06:12:52;;;;;;;13.05;9.73;;;6.90;88.50;;;;;;6037283;23;92415;-73
2021/12/12 06:15:22;;;;;;;15.15;10.55;;;6.90;88.70;;;;;;6037115;23;92373;-74
2021/12/12 06:17:51;;;;;;;12.98;9.18;;;6.90;88.60;;;;;;6036639;23;92934;-73
2021/12/12 06:20:19;;;;;;;12.55;9.88;;;7.00;88.50;;;;;;6034532;23;111174;-73
2021/12/12 06:22:47;;;;;;;12.23;8.95;;;7.00;88.40;;;;;;6011582;23;92370;-73
2021/12/12 06:25:15;;;;;;;15.40;9.43;;;6.90;89.40;;;;;;6037647;23;91709;-69
2021/12/12 06:27:42;;;;;;;12.38;9.93;;;6.90;88.90;;;;;;6034982;23;94089;-69
2021/12/12 06:30:14;;;;;;;11.27;8.73;;;7.00;89.00;;;;;;6037435;23;93169;-72
2021/12/12 06:32:43;;;;;;;12.93;8.95;;;7.00;88.60;;;;;;6035635;23;94715;-73
2021/12/12 06:35:11;;;;;;;12.43;8.82;;;7.00;88.50;;;;;;6011314;23;92445;-73
2021/12/12 06:37:42;;;;;;;12.68;9.25;;;7.00;88.50;;;;;;6037056;23;92910;-73
2021/12/12 06:40:13;;;;;;;15.10;9.68;;;7.00;88.60;;;;;;6011667;23;93032;-73
2021/12/12 06:42:40;;;;;;;12.65;9.55;;;7.00;88.50;;;;;;6037126;23;92391;-73
2021/12/12 06:45:11;;;;;;;11.55;9.05;;;7.00;88.80;;;;;;6037060;23;92424;-69
2021/12/12 06:47:39;;;;;;;10.35;8.75;;;7.00;88.60;;;;;;6036913;23;93004;-69
2021/12/12 06:50:07;;;;;;;11.38;9.35;;;7.10;88.80;;;;;;6011309;23;105459;-69
2021/12/12 06:52:35;;;;;;;13.27;9.48;;;7.00;88.60;;;;;;6036895;23;92788;-69
2021/12/12 06:55:07;;;;;;;13.60;8.77;;;7.10;88.70;;;;;;6037187;23;93525;-69
2021/12/12 06:57:35;;;;;;;11.90;9.05;;;7.10;88.60;;;;;;6034733;23;95394;-69
2021/12/12 07:00:07;;;;;;;13.55;9.77;;;7.10;88.50;;;;;;6011414;23;95135;-69
2021/12/12 07:02:35;;;;;;;11.50;8.77;;;7.10;88.60;;;;;;6036952;23;92307;-73
2021/12/12 07:05:06;;;;;;;9.88;8.18;;;7.10;88.60;;;;;;6037015;23;92461;-69
2021/12/12 07:07:33;;;;;;;12.45;9.65;;;7.10;88.90;;;;;;6036656;23;93588;-69
2021/12/12 07:10:00;;;;;;;14.45;9.77;;;7.10;89.00;;;;;;6034626;23;100320;-73
2021/12/12 07:12:28;;;;;;;15.40;9.70;;;7.10;89.10;;;;;;5987254;23;92437;-69
2021/12/12 07:14:55;;;;;;;14.70;9.10;;;7.10;89.30;;;;;;6036976;23;103575;-69
2021/12/12 07:17:23;;;;;;;9.73;8.00;;;7.10;89.20;;;;;;6036967;23;93080;-69
2021/12/12 07:19:51;;;;;;;11.88;8.45;;;7.10;89.40;;;;;;6035088;23;92768;-69
2021/12/12 07:22:19;;;;;;;13.20;9.55;;;7.10;89.40;;;;;;6035933;23;95186;-69
2021/12/12 07:24:46;;;;;;;12.02;9.23;;;7.20;89.70;;;;;;6036722;23;92414;-69
2021/12/12 07:27:15;;;;;;;9.93;7.53;;;7.20;89.60;;;;;;6036650;23;92947;-69
2021/12/12 07:29:43;;;;;;;10.68;7.93;;;7.20;89.50;;;;;;6036438;23;92770;-69
2021/12/12 07:32:10;;;;;;;10.70;8.25;;;7.20;89.40;;;;;;6037005;23;92382;-69
2021/12/12 07:34:38;;;;;;;12.05;8.30;;;7.30;89.50;;;;;;6011050;23;92963;-69
2021/12/12 07:37:07;;;;;;;11.57;8.60;;;7.30;89.30;;;;;;6011026;23;96023;-73
2021/12/12 07:39:37;;;;;;;10.30;8.07;;;7.30;89.30;;;;;;6036837;23;92817;-73
2021/12/12 07:42:06;;;;;;;9.35;7.95;;;7.30;89.30;;;;;;6010989;23;92552;-73
2021/12/12 07:44:36;;;;;;;9.07;7.55;;;7.40;89.30;;;;;;6036541;23;92463;-73
2021/12/12 07:47:07;;;;;;;8.65;7.28;;;7.40;88.90;;;;;;6034979;23;96579;-73
2021/12/12 07:49:39;;;;;;;10.70;8.30;;;7.50;88.80;;;;;;6010544;23;97774;-73
2021/12/12 07:52:11;;;;;;;11.57;7.93;;;7.50;88.70;;;;;;6011698;23;92416;-69
2021/12/12 07:54:40;;;;;;;8.85;7.18;;;7.50;88.70;;;;;;6036683;23;92346;-69
2021/12/12 07:57:07;;;;;;;9.63;7.78;;;7.50;88.60;;;;;;6009979;23;111414;-69
2021/12/12 07:59:37;;;;;;;8.98;7.40;;;7.50;88.50;;;;;;6036211;23;92856;-69
2021/12/12 08:02:06;;;;;;;9.93;8.35;;;7.60;88.50;;;;;;6036764;23;92358;-69
2021/12/12 08:04:34;;;;;;;9.70;7.20;;;7.60;88.80;;;;;;6036708;23;91685;-69
2021/12/12 08:07:01;;;;;;;10.25;8.02;;;7.60;88.70;;;;;;6036408;23;92959;-69
2021/12/12 08:09:29;;;;;;;10.38;7.68;;;7.60;88.60;;;;;;6036903;23;92765;-69
2021/12/12 08:11:57;;;;;;;9.27;8.15;;;7.60;88.80;;;;;;6009519;23;94756;-69
2021/12/12 08:14:27;;;;;;;12.80;9.93;;;7.60;89.10;;;;;;6036669;23;92428;-69
2021/12/12 08:16:55;;;;;;;11.30;8.82;;;7.70;88.70;;;;;;6036093;23;92968;-69
2021/12/12 08:19:25;;;;;;;14.55;8.88;;;7.70;88.70;;;;;;6035814;23;105194;-70
2021/12/12 08:22:06;;;;;;;14.00;9.70;;;7.70;88.80;;;;;;6010563;23;92747;-70
2021/12/12 08:24:35;;;;;;;11.98;9.60;;;7.70;88.90;;;;;;6060748;23;92674;-69
2021/12/12 08:27:04;;;;;;;11.15;9.32;;;7.70;88.90;;;;;;6037525;23;93088;-69
2021/12/12 08:29:33;;;;;;;14.10;9.50;;;7.70;89.20;;;;;;6037220;23;113597;-69
2021/12/12 08:32:04;;;;;;;11.93;9.15;;;7.80;88.80;;;;;;6011948;23;92870;-69
2021/12/12 08:34:31;;;;;;;11.55;8.95;;;7.80;88.80;;;;;;6038082;23;92796;-69
2021/12/12 08:36:59;;;;;;;13.88;9.57;;;7.80;88.60;;;;;;6035809;23;95452;-69
2021/12/12 08:39:27;;;;;;;12.63;9.38;;;7.90;88.50;;;;;;6035639;23;98017;-71
2021/12/12 08:41:56;;;;;;;13.75;9.07;;;7.90;88.40;;;;;;6012179;23;92403;-74
2021/12/12 08:44:28;;;;;;;11.52;8.88;;;8.00;88.40;;;;;;6012625;23;92540;-69
2021/12/12 08:46:58;;;;;;;10.77;8.00;;;8.00;88.20;;;;;;6037188;23;93143;-69
2021/12/12 08:49:29;;;;;;;9.63;7.65;;;8.00;88.20;;;;;;6037696;23;92916;-69
2021/12/12 08:52:17;;;;;;;10.10;8.38;;;8.00;88.20;;;;;;6037626;23;92376;-70
2021/12/12 08:54:47;;;;;;;10.38;8.55;;;8.10;88.20;;;;;;6012333;23;91666;-70
2021/12/12 08:57:31;;;;;;;11.70;7.88;;;8.10;87.90;;;;;;6037152;23;93253;-69
2021/12/12 09:00:18;;;;;;;8.45;7.55;;;8.20;87.90;;;;;;6037523;23;92641;-69
2021/12/12 09:02:45;;;;;;;10.35;7.82;;;8.20;87.60;;;;;;6036115;23;94695;-73
2021/12/12 09:05:20;;;;;;;9.68;7.60;;;8.20;87.40;;;;;;6037685;23;92385;-73
2021/12/12 09:08:11;;;;;;;9.77;7.65;;;8.30;87.20;;;;;;6036031;23;93184;-73
2021/12/12 09:10:47;;;;;;;8.98;8.07;;;8.30;87.20;;;;;;6037562;23;92788;-69
2021/12/12 09:13:21;;;;;;;11.45;8.70;;;8.30;87.30;;;;;;6036014;23;92404;-69
2021/12/12 09:15:56;;;;;;;11.55;9.93;;;8.30;87.40;;;;;;6037434;23;92759;-70
2021/12/12 09:18:57;;;;;;;11.52;9.07;;;8.40;87.50;;;;;;6012143;23;92909;-69
2021/12/12 09:21:30;;;;;;;11.13;9.52;;;8.40;87.00;;;;;;6038130;23;92819;-73
2021/12/12 09:24:16;;;;;;;16.25;14.52;;;8.40;87.20;;;;;;6037504;23;92369;-73
2021/12/12 09:26:48;;;;;;;15.98;12.32;;;8.40;87.30;;;;;;6034884;23;92449;-73
2021/12/12 09:29:18;;;;;;;10.73;9.43;;;8.50;87.30;;;;;;6035268;23;95283;-69
2021/12/12 09:31:55;;;;;;;12.75;9.70;;;8.50;87.40;;;;;;6035433;23;95019;-69
2021/12/12 09:34:40;;;;;;;11.43;9.60;;;8.50;87.30;;;;;;6037652;23;92370;-73
2021/12/12 09:37:40;;;;;;;10.63;9.02;;;8.60;87.20;;;;;;6036224;23;92747;-69
2021/12/12 09:40:47;;;;;;;13.20;8.95;;;8.60;87.30;;;;;;6035230;23;93080;-69
2021/12/12 09:43:47;;;;;;;12.25;9.38;;;8.60;87.40;;;;;;6037247;23;92667;-70
2021/12/12 09:46:44;;;;;;;10.55;8.52;;;8.70;87.30;;;;;;6035899;23;92392;-73
2021/12/12 09:52:22;;;;;;;11.80;9.48;;;8.70;87.00;;;;;;6037324;23;92319;-74
2021/12/12 09:54:59;;;;;;;13.07;10.20;;;8.80;87.00;;;;;;6035241;23;92933;-73
2021/12/12 09:57:46;;;;;;;11.50;9.38;;;8.80;87.10;;;;;;6011576;23;94771;-73
2021/12/12 10:00:15;;;;;;;14.95;10.07;;;8.80;87.10;;;;;;6037480;23;92389;-70
2021/12/12 10:02:55;;;;;;;15.32;10.32;;;8.80;87.10;;;;;;6035172;23;95295;-69
2021/12/12 10:05:34;;;;;;;12.25;10.27;;;8.90;87.00;;;;;;6036586;23;92765;-73
2021/12/12 10:08:25;;;;;;;14.82;10.95;;;8.90;87.30;;;;;;6036464;23;92362;-69
2021/12/12 10:11:15;;;;;;;15.73;10.75;;;9.00;87.10;;;;;;6034863;23;92488;-74
2021/12/12 10:14:22;;;;;;;14.57;11.45;;;9.00;87.20;;;;;;6035038;23;93041;-73
2021/12/12 10:16:56;;;;;;;16.70;10.95;;;9.00;87.10;;;;;;5948206;23;92802;-69
2021/12/12 10:19:41;;;;;;;13.93;10.73;;;9.10;87.10;;;;;;6023434;23;92827;-69
2021/12/12 10:22:25;;;;;;;15.23;11.32;;;9.10;87.10;;;;;;6036397;23;92301;-70
2021/12/12 10:25:12;;;;;;;19.88;11.27;;;9.20;87.00;;;;;;6032587;23;96669;-70
2021/12/12 10:27:51;;;;;;;15.10;10.57;;;9.20;87.00;;;;;;6010743;23;95151;-69
2021/12/12 10:30:26;;;;;;;15.07;11.00;;;9.30;87.10;;;;;;6036563;23;92461;-69
2021/12/12 10:33:12;;;;;;;16.67;11.90;;;9.30;86.90;;;;;;6034623;23;92400;-69
2021/12/12 10:36:00;;;;;;;18.92;12.27;;;9.40;87.00;;;;;;6036512;23;92931;-70
2021/12/12 10:38:36;;;;;;;17.02;11.88;;;9.40;87.10;;;;;;6036680;23;92937;-69
2021/12/12 10:41:12;;;;;;;12.85;10.25;;;9.40;86.90;;;;;;6034556;23;92332;-73
2021/12/12 10:44:02;;;;;;;16.52;11.15;;;9.50;87.30;;;;;;6035739;23;91702;-73
2021/12/12 10:46:36;;;;;;;14.95;11.30;;;9.50;86.90;;;;;;6035808;23;94817;-73
2021/12/12 10:49:13;;;;;;;16.58;11.40;;;9.60;86.90;;;;;;6036297;23;92966;-73
2021/12/12 10:51:48;;;;;;;15.05;11.10;;;9.60;86.80;;;;;;6034851;23;97991;-74
2021/12/12 10:54:24;;;;;;;15.63;10.20;;;9.70;86.70;;;;;;6010623;23;92422;-73
2021/12/12 10:57:09;;;;;;;15.85;11.65;;;9.70;86.40;;;;;;6035815;23;93167;-73
2021/12/12 10:59:47;;;;;;;14.65;10.77;;;9.80;86.30;;;;;;6036500;23;92850;-73
2021/12/12 11:02:20;;;;;;;14.13;11.23;;;9.80;86.40;;;;;;6036137;23;92346;-73
2021/12/12 11:04:52;;;;;;;15.48;10.77;;;9.90;86.30;;;;;;6036506;23;92303;-73
2021/12/12 11:07:29;;;;;;;15.35;11.57;;;9.90;86.40;;;;;;6010219;23;94251;-73
2021/12/12 11:10:10;;;;;;;15.00;10.63;;;10.00;86.40;;;;;;6036799;23;92805;-73
2021/12/12 11:13:04;;;;;;;14.43;10.50;;;10.00;86.20;;;;;;6011055;23;92356;-73
2021/12/12 11:15:48;;;;;;;15.43;10.77;;;10.00;86.10;;;;;;6036237;23;92755;-73
2021/12/12 11:18:23;;;;;;;14.18;10.98;;;10.00;86.30;;;;;;6034335;23;98074;-70
2021/12/12 11:21:04;;;;;;;15.27;11.63;;;10.10;86.70;;;;;;6036171;23;95121;-69
2021/12/12 11:23:37;;;;;;;13.38;9.70;;;10.10;86.10;;;;;;6010638;23;92462;-69
2021/12/12 11:26:20;;;;;;;15.00;10.75;;;10.10;86.60;;;;;;6036705;23;92726;-69
2021/12/12 11:29:01;;;;;;;14.77;10.73;;;10.20;86.00;;;;;;6010777;23;93017;-69
2021/12/12 11:31:52;;;;;;;15.35;10.35;;;10.20;85.90;;;;;;6036186;23;92792;-70
2021/12/12 11:34:46;;;;;;;13.90;10.32;;;10.30;85.90;;;;;;6036222;23;92445;-69
2021/12/12 11:37:47;;;;;;;13.88;10.10;;;10.30;85.90;;;;;;6036353;23;91658;-69
2021/12/12 11:40:36;;;;;;;12.10;9.88;;;10.40;85.80;;;;;;6035805;23;92897;-70
2021/12/12 11:43:17;;;;;;;11.77;8.95;;;10.40;85.90;;;;;;6036404;23;92633;-73
2021/12/12 11:45:49;;;;;;;12.15;9.70;;;10.40;85.80;;;;;;6035495;23;94726;-73
2021/12/12 11:48:44;;;;;;;14.38;10.10;;;10.40;85.70;;;;;;6036656;23;92975;-73
2021/12/12 11:51:38;;;;;;;12.82;9.40;;;10.60;85.60;;;;;;6035934;23;93102;-74
2021/12/12 11:54:33;;;;;;;12.10;9.25;;;10.60;85.50;;;;;;6035888;23;92850;-70
2021/12/12 11:57:28;;;;;;;12.13;9.57;;;10.60;85.30;;;;;;6028524;23;92476;-69
2021/12/12 12:00:14;;;;;;;11.70;9.00;;;10.70;85.60;;;;;;6060829;23;92460;-69
2021/12/12 12:02:54;;;;;;;12.45;9.25;;;10.60;85.30;;;;;;6037783;23;93039;-70
2021/12/12 12:05:24;;;;;;;12.23;9.50;;;10.60;85.50;;;;;;6037949;23;92650;-70
2021/12/12 12:08:19;;;;;;;21.67;14.73;;;10.60;85.80;;;;;;6037982;23;92783;-69
2021/12/12 12:11:20;;;;;;;11.85;9.40;;;10.60;85.80;;;;;;6037269;23;92405;-69
2021/12/12 12:14:02;;;;;;;12.48;10.10;;;10.60;85.70;;;;;;6032828;23;96794;-69
2021/12/12 12:16:44;;;;;;;12.55;9.50;;;10.60;85.80;;;;;;6033786;23;95025;-70
2021/12/12 12:20:56;;;;;;;12.38;10.10;;;10.60;86.20;;;;;;5017665;28;87501;-68
2021/12/12 12:23:48;;;;;;;14.18;9.75;;;10.70;86.30;;;;;;4985970;27;89128;-68
2021/12/12 12:29:27;;;;;;;14.20;10.00;;;10.70;86.10;;;;;;4972481;28;98406;-68
2021/12/12 12:32:31;;;;;;;15.40;11.07;;;10.80;86.20;;;;;;4963593;28;88465;-68
2021/12/12 12:35:42;;;;;;;16.05;9.68;;;10.80;86.30;;;;;;4974410;28;89153;-72
2021/12/12 12:38:47;;;;;;;14.93;10.77;;;10.80;86.20;;;;;;4974780;28;88864;-72
2021/12/12 12:41:33;;;;;;;11.52;9.45;;;10.90;86.40;;;;;;4988909;28;88837;-72
2021/12/12 12:44:47;;;;;;;16.90;11.05;;;10.90;86.50;;;;;;4946289;28;87958;-72
2021/12/12 12:47:52;;;;;;;12.40;9.13;;;10.90;86.20;;;;;;4973730;28;89263;-72
2021/12/12 12:50:55;;;;;;;15.23;10.80;;;10.90;86.50;;;;;;4974996;28;88459;-72
2021/12/12 12:53:40;;;;;;;15.40;10.20;;;11.00;86.50;;;;;;4973756;28;88361;-74
2021/12/12 12:56:49;;;;;;;14.38;9.25;;;11.00;86.50;;;;;;4987971;28;88583;-74
2021/12/12 12:59:48;;;;;;;12.43;9.45;;;11.10;86.60;;;;;;4989791;28;88125;-74
2021/12/12 13:02:22;;;;;;;9.07;8.10;;;11.10;86.60;;;;;;4929201;28;88947;-70
2021/12/12 13:05:14;;;;;;;13.18;9.60;;;11.10;86.80;;;;;;4980427;28;88345;-70
2021/12/12 13:07:40;;;;;;;14.43;9.55;;;11.10;86.80;;;;;;4974701;28;93412;-70
2021/12/12 13:10:13;;;;;;;10.18;8.32;;;11.10;86.60;;;;;;4974762;28;87630;-70
2021/12/12 13:13:04;;;;;;;14.20;10.15;;;11.10;86.70;;;;;;4975082;28;87508;-70
2021/12/12 13:15:37;;;;;;;13.30;9.35;;;11.20;86.70;;;;;;4988690;28;88548;-70
2021/12/12 13:18:20;;;;;;;13.45;9.82;;;11.20;86.60;;;;;;4974754;28;87980;-71
2021/12/12 13:20:59;;;;;;;16.88;11.00;;;11.20;86.30;;;;;;4974644;28;87504;-70
2021/12/12 13:23:38;;;;;;;16.95;10.88;;;11.20;86.70;;;;;;4973498;28;88458;-70
2021/12/12 13:26:11;;;;;;;14.88;10.52;;;11.30;86.60;;;;;;4973661;28;88467;-70
2021/12/12 13:29:03;;;;;;;18.60;12.38;;;11.20;86.40;;;;;;4973306;28;88459;-70
2021/12/12 13:31:39;;;;;;;15.60;11.25;;;11.30;86.30;;;;;;4962743;28;89335;-70
2021/12/12 13:34:19;;;;;;;14.55;11.00;;;11.30;86.40;;;;;;4960350;28;88765;-70
2021/12/12 13:37:04;;;;;;;14.90;11.35;;;11.30;86.30;;;;;;4960246;28;90861;-70
2021/12/12 13:40:03;;;;;;;14.35;10.05;;;11.30;86.30;;;;;;4960089;28;88711;-70
2021/12/12 13:43:05;;;;;;;15.77;10.70;;;11.40;86.40;;;;;;4959886;28;89252;-70
2021/12/12 13:45:40;;;;;;;16.55;11.18;;;11.30;86.70;;;;;;4958386;28;91941;-70
2021/12/12 13:48:11;;;;;;;15.82;11.68;;;11.30;86.80;;;;;;4942620;28;89365;-70